Time;durP1;ratioP1;P1;durP2;ratioP2;P2;SDS_P1;SDS_P2;PMS_P1;PMS_P2;Temp;Humidity;BMP_temperature;BMP_pressure;BME280_temperature;BME280_humidity;BME280_pressure;Samples;Min_cycle;Max_cycle;Signal;HPM_P1;HPM_P2
2023/09/04 00:01:28;;;;;;;;;;;;;;;25.21;45.66;100606.94;5076182;28;1138;-29
2023/09/04 00:03:53;;;;;;;;;;;;;;;26.04;41.76;100591.19;5077192;28;1151;-27
2023/09/04 00:06:19;;;;;;;;;;;;;;;25.89;42.68;100598.38;5076708;28;1047;-28
2023/09/04 00:08:45;;;;;;;;;;;;;;;23.46;48.95;100600.44;5067005;28;1909;-29
2023/09/04 00:11:10;;;;;;;;;;;;;;;25.23;43.73;100594.13;5061684;28;1115;-28
2023/09/04 00:13:36;;;;;;;;;;;;;;;25.62;42.83;100593.28;5064655;28;1360;-26
2023/09/04 00:16:02;;;;;;;;;;;;;;;25.89;43.57;100596.50;5064549;28;1159;-29
2023/09/04 00:18:27;;;;;;;;;;;;;;;26.50;41.27;100600.28;5076236;28;1054;-27
2023/09/04 00:20:53;;;;;;;;;;;;;;;25.51;40.78;100596.34;5072796;28;1182;-28
2023/09/04 00:23:18;;;;;;;;;;;;;;;23.95;47.54;100604.28;5072524;28;1032;-27
2023/09/04 00:25:44;;;;;;;;;;;;;;;25.39;43.33;100591.34;5076252;28;1169;-28
2023/09/04 00:28:09;;;;;;;;;;;;;;;25.97;42.71;100586.69;5076443;28;1984;-30
2023/09/04 00:30:35;;;;;;;;;;;;;;;25.86;44.00;100580.69;5075661;28;1046;-26
2023/09/04 00:33:02;;;;;;;;;;;;;;;23.05;50.89;100578.75;5074965;28;1199;-26
2023/09/04 00:35:28;;;;;;;;;;;;;;;24.74;44.40;100569.81;5070053;28;1119;-27
2023/09/04 00:37:54;;;;;;;;;;;;;;;25.18;45.08;100570.41;5064715;28;1126;-26
2023/09/04 00:40:19;;;;;;;;;;;;;;;26.46;40.80;100566.59;5076071;28;1079;-27
2023/09/04 00:42:45;;;;;;;;;;;;;;;23.82;45.81;100567.13;5058268;28;1234;-26
2023/09/04 00:45:13;;;;;;;;;;;;;;;24.25;46.56;100558.13;5075916;28;1146;-28
2023/09/04 00:47:42;;;;;;;;;;;;;;;25.16;46.00;100558.97;5075887;28;1905;-25
2023/09/04 00:50:08;;;;;;;;;;;;;;;26.02;42.13;100557.34;5045062;28;1004;-28
2023/09/04 00:52:35;;;;;;;;;;;;;;;25.86;43.60;100555.63;5076108;28;1059;-26
2023/09/04 00:55:00;;;;;;;;;;;;;;;26.74;40.03;100548.97;5058314;28;1195;-26
2023/09/04 00:57:26;;;;;;;;;;;;;;;23.32;47.51;100541.97;5058177;28;1194;-26
2023/09/04 00:59:52;;;;;;;;;;;;;;;24.80;44.74;100542.25;5076352;28;1157;-28
2023/09/04 01:02:18;;;;;;;;;;;;;;;25.26;45.52;100539.91;5042493;28;1151;-27
2023/09/04 01:04:44;;;;;;;;;;;;;;;26.40;41.31;100541.22;5062925;28;1300;-28
2023/09/04 01:07:09;;;;;;;;;;;;;;;25.86;40.11;100544.84;5079796;28;1979;-26
2023/09/04 01:09:35;;;;;;;;;;;;;;;23.87;48.78;100534.41;5080263;28;1170;-25
2023/09/04 01:12:09;;;;;;;;;;;;;;;25.52;43.00;100528.88;5061748;28;1079;-28
2023/09/04 01:14:35;;;;;;;;;;;;;;;25.96;42.56;100528.44;5079696;28;1134;-26
2023/09/04 01:17:01;;;;;;;;;;;;;;;25.86;44.65;100523.28;5061702;28;1067;-25
2023/09/04 01:19:26;;;;;;;;;;;;;;;23.30;50.38;100523.34;5079711;28;1060;-27
2023/09/04 01:21:52;;;;;;;;;;;;;;;25.03;44.69;100513.78;5061435;28;1143;-26
2023/09/04 01:24:18;;;;;;;;;;;;;;;25.28;45.14;100511.81;5066204;28;1078;-28
2023/09/04 01:26:45;;;;;;;;;;;;;;;26.63;40.78;100517.88;5070656;28;1968;-26
2023/09/04 01:29:23;;;;;;;;;;;;;;;26.41;41.77;100509.66;5061419;28;1154;-29
2023/09/04 01:32:07;;;;;;;;;;;;;;;26.03;44.08;100518.59;5061680;28;1140;-28
2023/09/04 01:34:34;;;;;;;;;;;;;;;23.53;49.27;100511.19;5061804;28;1068;-31
2023/09/04 01:37:00;;;;;;;;;;;;;;;25.42;43.27;100512.91;5077620;28;1222;-27
2023/09/04 01:39:26;;;;;;;;;;;;;;;25.67;43.45;100506.56;5049999;28;1076;-28
2023/09/04 01:41:51;;;;;;;;;;;;;;;26.22;43.43;100500.22;5061207;28;1162;-27
2023/09/04 01:44:18;;;;;;;;;;;;;;;26.69;40.77;100497.44;5079247;28;1018;-29
2023/09/04 01:46:44;;;;;;;;;;;;;;;25.98;43.13;100505.66;5079122;28;1906;-29
2023/09/04 01:49:09;;;;;;;;;;;;;;;23.60;49.12;100496.94;5079107;28;871;-27
2023/09/04 01:51:35;;;;;;;;;;;;;;;25.25;44.28;100487.94;5078593;28;1067;-26
2023/09/04 01:54:00;;;;;;;;;;;;;;;25.57;42.99;100490.63;5051600;28;1785;-29
2023/09/04 01:56:26;;;;;;;;;;;;;;;25.75;44.58;100486.81;5050562;28;1063;-29
2023/09/04 01:58:52;;;;;;;;;;;;;;;26.65;40.60;100489.72;5053601;28;1149;-28
2023/09/04 02:01:18;;;;;;;;;;;;;;;25.65;40.62;100495.13;5057501;28;1258;-28
2023/09/04 02:03:44;;;;;;;;;;;;;;;24.01;47.96;100491.75;5078784;28;1054;-27
2023/09/04 02:06:10;;;;;;;;;;;;;;;25.57;43.36;100496.00;5070366;28;1194;-28
2023/09/04 02:08:36;;;;;;;;;;;;;;;25.96;42.57;100505.00;5056083;28;1913;-29
2023/09/04 02:11:03;;;;;;;;;;;;;;;25.82;44.30;100495.84;5079822;28;1090;-28
2023/09/04 02:13:28;;;;;;;;;;;;;;;23.30;50.32;100492.97;5075345;28;849;-27
2023/09/04 02:15:55;;;;;;;;;;;;;;;24.99;44.78;100494.44;5056153;28;1094;-27
2023/09/04 02:18:20;;;;;;;;;;;;;;;25.14;45.76;100493.72;5060845;28;1304;-30
2023/09/04 02:20:46;;;;;;;;;;;;;;;26.50;41.08;100502.34;5060213;28;1083;-29
2023/09/04 02:23:12;;;;;;;;;;;;;;;26.29;41.98;100507.41;5060551;28;1322;-27
2023/09/04 02:25:38;;;;;;;;;;;;;;;26.33;43.33;100498.97;5076064;28;1122;-30
2023/09/04 02:28:03;;;;;;;;;;;;;;;23.26;50.34;100496.97;5066886;28;1914;-28
2023/09/04 02:30:29;;;;;;;;;;;;;;;24.79;44.58;100486.75;5076402;28;1186;-27
2023/09/04 02:32:58;;;;;;;;;;;;;;;25.23;45.00;100494.50;5066918;28;1015;-25
2023/09/04 02:35:25;;;;;;;;;;;;;;;26.55;40.84;100499.94;5059933;28;1246;-26
2023/09/04 02:37:52;;;;;;;;;;;;;;;26.35;41.80;100492.38;5051335;28;1142;-26
2023/09/04 02:40:17;;;;;;;;;;;;;;;26.14;43.38;100488.50;5073736;28;1142;-25
2023/09/04 02:42:43;;;;;;;;;;;;;;;23.30;50.90;100496.50;5078112;28;1083;-31
2023/09/04 02:45:09;;;;;;;;;;;;;;;24.93;44.68;100490.63;5064821;28;1056;-26
2023/09/04 02:47:37;;;;;;;;;;;;;;;25.34;45.04;100494.09;5078216;28;1921;-29
2023/09/04 02:50:03;;;;;;;;;;;;;;;26.50;41.03;100502.34;5064065;28;926;-27
2023/09/04 02:52:29;;;;;;;;;;;;;;;23.77;46.29;100493.44;5078090;28;1011;-28
2023/09/04 02:54:56;;;;;;;;;;;;;;;24.50;46.59;100498.97;5077524;28;1067;-30
2023/09/04 02:57:22;;;;;;;;;;;;;;;25.19;46.22;100492.16;5077956;28;1139;-26
2023/09/04 02:59:48;;;;;;;;;;;;;;;26.11;42.13;100499.66;5074771;28;1253;-29
2023/09/04 03:02:14;;;;;;;;;;;;;;;26.09;43.26;100496.28;5057279;28;1331;-27
2023/09/04 03:04:40;;;;;;;;;;;;;;;26.66;40.63;100490.53;5063817;28;1178;-29
2023/09/04 03:07:05;;;;;;;;;;;;;;;23.51;47.55;100491.69;5077984;28;1918;-27
2023/09/04 03:09:31;;;;;;;;;;;;;;;24.36;47.32;100494.28;5064753;28;1107;-30
2023/09/04 03:11:58;;;;;;;;;;;;;;;25.17;45.20;100502.28;5059832;28;1134;-28
2023/09/04 03:14:23;;;;;;;;;;;;;;;25.59;42.77;100518.19;5045616;28;892;-28
2023/09/04 03:16:49;;;;;;;;;;;;;;;25.54;43.18;100529.50;5059429;28;1075;-27
2023/09/04 03:19:15;;;;;;;;;;;;;;;25.55;41.98;100536.59;5059442;28;1162;-27
2023/09/04 03:21:40;;;;;;;;;;;;;;;25.16;42.86;100543.66;5059510;28;1094;-28
2023/09/04 03:24:06;;;;;;;;;;;;;;;25.39;43.50;100561.72;5059330;28;1147;-29
2023/09/04 03:26:32;;;;;;;;;;;;;;;25.73;43.18;100572.34;5068259;28;893;-27
2023/09/04 03:28:58;;;;;;;;;;;;;;;25.58;42.56;100577.63;5039303;28;1989;-33
2023/09/04 03:31:23;;;;;;;;;;;;;;;25.33;43.82;100572.38;5057433;28;1167;-28
2023/09/04 03:33:49;;;;;;;;;;;;;;;25.81;42.34;100575.00;5073145;28;1178;-32
2023/09/04 03:36:14;;;;;;;;;;;;;;;25.30;42.46;100568.19;5086191;28;1179;-34
2023/09/04 03:38:40;;;;;;;;;;;;;;;25.15;44.15;100573.47;5046222;28;875;-29
2023/09/04 03:41:06;;;;;;;;;;;;;;;25.22;43.35;100576.28;5076598;28;1106;-29
2023/09/04 03:43:33;;;;;;;;;;;;;;;25.51;43.17;100577.50;5045525;28;1224;-29
2023/09/04 03:45:58;;;;;;;;;;;;;;;25.64;43.45;100585.88;5063873;28;1044;-30
2023/09/04 03:48:25;;;;;;;;;;;;;;;25.28;43.39;100592.59;5077010;28;1906;-30
2023/09/04 03:50:51;;;;;;;;;;;;;;;25.48;42.89;100594.00;5069533;28;888;-31
2023/09/04 03:53:16;;;;;;;;;;;;;;;25.66;44.08;100589.25;5069880;28;1115;-27
2023/09/04 03:55:42;;;;;;;;;;;;;;;26.62;40.24;100598.00;5058577;28;1268;-25
2023/09/04 03:58:08;;;;;;;;;;;;;;;24.14;44.52;100604.13;5058452;28;1151;-27
2023/09/04 04:00:33;;;;;;;;;;;;;;;24.72;45.43;100597.91;5076610;28;1217;-29
2023/09/04 04:03:02;;;;;;;;;;;;;;;25.16;45.69;100594.81;5063900;28;935;-30
2023/09/04 04:05:28;;;;;;;;;;;;;;;25.72;41.42;100593.09;5045438;28;1163;-27
2023/09/04 04:07:54;;;;;;;;;;;;;;;26.00;42.06;100594.41;5055673;28;2439;-29
2023/09/04 04:10:19;;;;;;;;;;;;;;;26.45;40.10;100600.00;5068967;28;2001;-33
2023/09/04 04:12:45;;;;;;;;;;;;;;;25.48;41.99;100604.78;5049242;28;1930;-26
2023/09/04 04:15:11;;;;;;;;;;;;;;;25.57;43.13;100601.06;5053938;28;1936;-27
2023/09/04 04:17:37;;;;;;;;;;;;;;;25.77;42.72;100593.41;5061303;28;1803;-29
2023/09/04 04:20:09;;;;;;;;;;;;;;;25.67;43.39;100587.38;5068539;28;1895;-29
2023/09/04 04:22:35;;;;;;;;;;;;;;;25.42;43.57;100585.63;5071460;28;1788;-25
2023/09/04 04:25:01;;;;;;;;;;;;;;;25.80;43.38;100589.50;5075035;28;1194;-30
2023/09/04 04:27:26;;;;;;;;;;;;;;;25.40;44.49;100578.72;5055132;28;1973;-26
2023/09/04 04:29:55;;;;;;;;;;;;;;;25.60;43.93;100579.16;5057879;28;1297;-26
2023/09/04 04:32:24;;;;;;;;;;;;;;;26.09;42.31;100577.16;5057237;28;1349;-30
2023/09/04 04:34:49;;;;;;;;;;;;;;;26.96;38.86;100578.75;5057404;28;1242;-28
2023/09/04 04:37:15;;;;;;;;;;;;;;;27.23;38.39;100569.19;5054738;28;1409;-26
2023/09/04 04:39:41;;;;;;;;;;;;;;;27.26;38.33;100566.09;5053869;28;2105;-29
2023/09/04 04:42:07;;;;;;;;;;;;;;;27.39;37.30;100561.91;5037786;28;1414;-28
2023/09/04 04:44:33;;;;;;;;;;;;;;;27.45;36.92;100561.13;5061370;28;1229;-28
2023/09/04 04:46:58;;;;;;;;;;;;;;;27.42;37.50;100560.66;5057384;28;1894;-31
2023/09/04 04:49:24;;;;;;;;;;;;;;;27.49;37.30;100556.19;5055028;28;1261;-31
2023/09/04 04:51:50;;;;;;;;;;;;;;;27.60;37.73;100553.00;5045715;28;2451;-29
2023/09/04 04:54:16;;;;;;;;;;;;;;;27.62;37.11;100559.03;5057616;28;1975;-29
2023/09/04 04:56:42;;;;;;;;;;;;;;;27.53;37.73;100552.06;5075703;28;1031;-28
2023/09/04 04:59:08;;;;;;;;;;;;;;;27.50;37.89;100542.50;5057898;28;1114;-31
2023/09/04 05:01:36;;;;;;;;;;;;;;;27.65;37.58;100552.41;5056928;28;1154;-27
2023/09/04 05:04:02;;;;;;;;;;;;;;;27.52;38.48;100553.09;5044742;28;1273;-29
2023/09/04 05:06:27;;;;;;;;;;;;;;;27.68;38.06;100559.28;5061556;28;1151;-31
2023/09/04 05:08:53;;;;;;;;;;;;;;;27.69;37.74;100552.91;5075267;28;1910;-33
2023/09/04 05:11:19;;;;;;;;;;;;;;;27.68;37.77;100556.56;5044336;28;1220;-27
2023/09/04 05:13:46;;;;;;;;;;;;;;;27.71;37.79;100553.56;5075392;28;995;-28
2023/09/04 05:16:12;;;;;;;;;;;;;;;27.80;37.14;100565.06;5057276;28;1142;-27
2023/09/04 05:18:38;;;;;;;;;;;;;;;27.98;36.83;100561.91;5056546;28;1243;-26
2023/09/04 05:21:06;;;;;;;;;;;;;;;27.92;37.41;100566.22;5057491;28;2237;-32
2023/09/04 05:23:32;;;;;;;;;;;;;;;27.90;37.79;100559.31;5044532;28;1218;-28
2023/09/04 05:25:58;;;;;;;;;;;;;;;27.91;37.32;100575.34;5056890;28;1084;-28
2023/09/04 05:28:24;;;;;;;;;;;;;;;27.89;37.81;100577.44;5044034;28;2338;-29
2023/09/04 05:30:50;;;;;;;;;;;;;;;27.87;37.76;100576.78;5062697;28;1059;-30
2023/09/04 05:33:16;;;;;;;;;;;;;;;27.86;38.09;100589.44;5075373;28;1076;-27
2023/09/04 05:35:42;;;;;;;;;;;;;;;27.92;38.04;100601.38;5075188;28;1170;-27
2023/09/04 05:38:07;;;;;;;;;;;;;;;28.08;37.87;100616.50;5075502;28;1095;-27
2023/09/04 05:40:33;;;;;;;;;;;;;;;27.99;38.41;100614.97;5074687;28;1087;-28
2023/09/04 05:42:59;;;;;;;;;;;;;;;27.20;40.44;100615.47;5075555;28;1092;-29
2023/09/04 05:45:24;;;;;;;;;;;;;;;26.59;42.40;100605.63;5077668;28;1086;-30
2023/09/04 05:47:50;;;;;;;;;;;;;;;26.29;42.88;100609.03;5078222;28;1979;-29
2023/09/04 05:50:16;;;;;;;;;;;;;;;26.91;41.08;100625.19;5074692;28;892;-29
2023/09/04 05:52:42;;;;;;;;;;;;;;;27.07;41.04;100626.91;5064055;28;2696;-34
2023/09/04 05:55:07;;;;;;;;;;;;;;;27.51;39.86;100622.50;5076576;28;1067;-26
2023/09/04 05:57:33;;;;;;;;;;;;;;;27.39;39.75;100618.63;5078402;28;1038;-28
2023/09/04 05:59:59;;;;;;;;;;;;;;;27.75;38.85;100631.34;5078498;28;1106;-27
2023/09/04 06:02:25;;;;;;;;;;;;;;;27.88;39.76;100643.31;5075044;28;1126;-32
2023/09/04 06:04:51;;;;;;;;;;;;;;;27.98;38.59;100643.84;5065158;28;1040;-25
2023/09/04 06:07:16;;;;;;;;;;;;;;;28.17;37.58;100627.19;5078756;28;1901;-31
2023/09/04 06:09:42;;;;;;;;;;;;;;;27.92;37.65;100623.00;5061340;28;1119;-28
2023/09/04 06:12:11;;;;;;;;;;;;;;;28.13;37.30;100625.91;5040795;28;1186;-28
2023/09/04 06:14:37;;;;;;;;;;;;;;;28.03;37.02;100620.81;5071633;28;1064;-30
2023/09/04 06:17:03;;;;;;;;;;;;;;;28.10;36.98;100611.75;5069197;28;1063;-29
2023/09/04 06:19:28;;;;;;;;;;;;;;;28.28;37.03;100612.31;5078058;28;1008;-28
2023/09/04 06:21:54;;;;;;;;;;;;;;;28.24;36.93;100601.06;5078243;28;2192;-28
2023/09/04 06:24:20;;;;;;;;;;;;;;;28.38;36.79;100606.63;5059693;28;1069;-29
2023/09/04 06:26:45;;;;;;;;;;;;;;;28.42;36.80;100606.03;5067249;28;1187;-29
2023/09/04 06:29:11;;;;;;;;;;;;;;;28.13;37.11;100601.56;5082556;28;1913;-29
2023/09/04 06:31:36;;;;;;;;;;;;;;;27.86;37.27;100604.84;5072301;28;1055;-28
2023/09/04 06:34:03;;;;;;;;;;;;;;;27.97;36.91;100601.63;5077954;28;1019;-29
2023/09/04 06:36:29;;;;;;;;;;;;;;;28.01;36.55;100587.72;5077749;28;1076;-29
2023/09/04 06:38:54;;;;;;;;;;;;;;;28.17;36.58;100582.06;5073734;28;1126;-28
2023/09/04 06:41:21;;;;;;;;;;;;;;;28.27;36.78;100580.88;5068218;28;1032;-26
2023/09/04 06:43:47;;;;;;;;;;;;;;;28.30;36.58;100585.91;5077538;28;1022;-28
2023/09/04 06:46:12;;;;;;;;;;;;;;;28.40;36.64;100555.81;5077786;28;1097;-28
2023/09/04 06:48:38;;;;;;;;;;;;;;;28.36;36.02;100560.81;5077524;28;1977;-29
2023/09/04 06:51:04;;;;;;;;;;;;;;;28.26;36.40;100573.81;5077056;28;2367;-26
2023/09/04 06:53:29;;;;;;;;;;;;;;;28.18;36.18;100582.88;5056632;28;1337;-27
2023/09/04 06:55:55;;;;;;;;;;;;;;;28.02;36.57;100590.25;5056608;28;1250;-26
2023/09/04 06:58:22;;;;;;;;;;;;;;;28.10;36.40;100586.56;5056693;28;1210;-27
2023/09/04 07:00:47;;;;;;;;;;;;;;;28.01;36.76;100593.94;5056755;28;1254;-26
2023/09/04 07:03:13;;;;;;;;;;;;;;;28.18;36.72;100586.44;5063434;28;1309;-28
2023/09/04 07:05:38;;;;;;;;;;;;;;;28.14;36.86;100589.72;5066588;28;1222;-28
2023/09/04 07:08:04;;;;;;;;;;;;;;;28.28;36.45;100601.50;5065376;28;1909;-27
2023/09/04 07:10:31;;;;;;;;;;;;;;;28.34;36.85;100596.16;5075824;28;974;-26
2023/09/04 07:12:59;;;;;;;;;;;;;;;28.24;36.94;100606.47;5069817;28;1097;-28
2023/09/04 07:15:25;;;;;;;;;;;;;;;28.15;36.78;100596.78;5068042;28;1001;-29
2023/09/04 07:17:50;;;;;;;;;;;;;;;28.30;36.64;100594.84;5065931;28;1103;-32
2023/09/04 07:20:16;;;;;;;;;;;;;;;28.41;36.95;100598.09;5074083;28;1213;-27
2023/09/04 07:22:41;;;;;;;;;;;;;;;28.50;36.90;100610.44;5078481;28;1895;-29
2023/09/04 07:25:07;;;;;;;;;;;;;;;28.28;36.93;100599.63;5064102;28;1099;-28
2023/09/04 07:27:33;;;;;;;;;;;;;;;28.30;36.80;100608.38;5072090;28;1882;-28
2023/09/04 07:29:59;;;;;;;;;;;;;;;28.41;36.75;100600.81;5073601;28;1099;-30
2023/09/04 07:32:25;;;;;;;;;;;;;;;28.47;36.43;100600.88;5071632;28;1304;-30
2023/09/04 07:34:56;;;;;;;;;;;;;;;28.43;36.44;100613.09;5072937;28;1116;-30
2023/09/04 07:37:27;;;;;;;;;;;;;;;28.31;36.43;100612.75;5077023;28;1046;-33
2023/09/04 07:39:53;;;;;;;;;;;;;;;28.28;36.16;100598.81;5066377;28;948;-29
2023/09/04 07:42:19;;;;;;;;;;;;;;;28.33;35.50;100599.06;5056004;28;1270;-28
2023/09/04 07:44:45;;;;;;;;;;;;;;;28.33;36.32;100607.19;5064289;28;1270;-29
2023/09/04 07:47:10;;;;;;;;;;;;;;;28.50;36.36;100609.59;5075666;28;1906;-31
2023/09/04 07:49:36;;;;;;;;;;;;;;;28.57;35.92;100603.22;5063570;28;938;-30
2023/09/04 07:52:01;;;;;;;;;;;;;;;28.30;36.22;100605.69;5061955;28;1982;-29
2023/09/04 07:54:27;;;;;;;;;;;;;;;28.26;37.33;100592.75;5074609;28;1269;-29
2023/09/04 07:56:53;;;;;;;;;;;;;;;28.24;37.84;100590.22;5073340;28;1571;-31
2023/09/04 07:59:18;;;;;;;;;;;;;;;28.40;37.93;100593.69;5074068;28;1162;-28
2023/09/04 08:01:44;;;;;;;;;;;;;;;28.42;38.04;100592.50;5059739;28;1336;-27
2023/09/04 08:04:09;;;;;;;;;;;;;;;28.55;37.90;100585.50;5065791;28;1198;-31
2023/09/04 08:06:35;;;;;;;;;;;;;;;28.44;38.59;100586.88;5067251;28;1135;-29
2023/09/04 08:09:01;;;;;;;;;;;;;;;28.55;37.98;100585.50;5065372;28;1910;-27
2023/09/04 08:11:26;;;;;;;;;;;;;;;28.66;37.30;100589.53;5058533;28;1199;-28
2023/09/04 08:13:52;;;;;;;;;;;;;;;28.69;37.57;100591.84;5072145;28;1001;-28
2023/09/04 08:16:17;;;;;;;;;;;;;;;28.72;37.94;100594.16;5069901;28;1207;-29
2023/09/04 08:18:43;;;;;;;;;;;;;;;28.56;37.50;100595.31;5074777;28;1083;-27
2023/09/04 08:21:09;;;;;;;;;;;;;;;28.51;37.27;100595.88;5067053;28;1824;-30
2023/09/04 08:23:35;;;;;;;;;;;;;;;28.58;37.92;100591.34;5059576;28;1347;-27
2023/09/04 08:26:00;;;;;;;;;;;;;;;28.50;38.06;100582.53;5071698;28;1190;-33
2023/09/04 08:28:26;;;;;;;;;;;;;;;28.66;37.06;100593.06;5061412;28;2024;-28
2023/09/04 08:30:51;;;;;;;;;;;;;;;28.57;37.34;100586.16;5075362;28;1170;-27
2023/09/04 08:33:17;;;;;;;;;;;;;;;28.55;36.88;100594.47;5070297;28;1083;-29
2023/09/04 08:35:42;;;;;;;;;;;;;;;28.37;37.48;100586.84;5070021;28;977;-27
2023/09/04 08:38:08;;;;;;;;;;;;;;;28.31;37.26;100593.00;5065073;28;1324;-29
2023/09/04 08:40:34;;;;;;;;;;;;;;;28.50;37.63;100590.66;5061492;28;1119;-27
2023/09/04 08:43:00;;;;;;;;;;;;;;;28.68;37.51;100585.59;5069733;28;1068;-26
2023/09/04 08:45:25;;;;;;;;;;;;;;;28.64;37.51;100599.72;5055450;28;1199;-27
2023/09/04 08:47:52;;;;;;;;;;;;;;;28.80;36.76;100596.72;5078760;28;1979;-28
2023/09/04 08:50:21;;;;;;;;;;;;;;;28.77;36.39;100591.69;5072795;28;917;-29
2023/09/04 08:52:47;;;;;;;;;;;;;;;28.61;37.14;100590.16;5053967;28;2563;-28
2023/09/04 08:55:12;;;;;;;;;;;;;;;28.77;37.29;100585.44;5072279;28;1237;-27
2023/09/04 08:57:39;;;;;;;;;;;;;;;28.92;36.66;100585.31;5072871;28;1190;-31
2023/09/04 09:00:05;;;;;;;;;;;;;;;28.88;37.22;100584.06;5067400;28;1254;-32
2023/09/04 09:02:31;;;;;;;;;;;;;;;28.99;37.83;100579.97;5055242;28;1234;-27
2023/09/04 09:04:57;;;;;;;;;;;;;;;28.81;38.42;100579.44;5055581;28;1433;-28
2023/09/04 09:07:27;;;;;;;;;;;;;;;28.98;38.06;100587.25;5065818;28;1901;-27
2023/09/04 09:09:52;;;;;;;;;;;;;;;28.92;39.32;100590.75;5049732;28;1209;-28
2023/09/04 09:12:18;;;;;;;;;;;;;;;29.04;39.09;100605.44;5057878;28;1356;-29
2023/09/04 09:14:43;;;;;;;;;;;;;;;29.04;39.02;100591.06;5069438;28;1179;-29
2023/09/04 09:17:15;;;;;;;;;;;;;;;29.05;39.28;100590.00;5067217;28;1001;-27
2023/09/04 09:19:41;;;;;;;;;;;;;;;28.88;39.23;100584.06;5076690;28;1194;-33
2023/09/04 09:22:10;;;;;;;;;;;;;;;28.95;39.46;100583.06;5076712;28;1834;-28
2023/09/04 09:24:48;;;;;;;;;;;;;;;29.06;39.09;100581.69;5070480;28;1328;-29
2023/09/04 09:27:14;;;;;;;;;;;;;;;28.92;39.68;100572.63;5078293;28;1981;-29
2023/09/04 09:29:40;;;;;;;;;;;;;;;28.93;39.36;100574.28;5058227;28;1065;-29
2023/09/04 09:32:05;;;;;;;;;;;;;;;29.00;39.23;100574.38;5058241;28;964;-29
2023/09/04 09:34:34;;;;;;;;;;;;;;;29.03;39.74;100578.56;5068694;28;1203;-28
2023/09/04 09:37:00;;;;;;;;;;;;;;;28.99;39.74;100567.28;5074023;28;1238;-30
2023/09/04 09:39:25;;;;;;;;;;;;;;;28.96;39.51;100573.88;5057500;28;1036;-26
2023/09/04 09:41:51;;;;;;;;;;;;;;;28.96;39.71;100568.47;5077187;28;926;-29
2023/09/04 09:44:16;;;;;;;;;;;;;;;29.00;39.75;100571.66;5077376;28;1083;-27
2023/09/04 09:46:42;;;;;;;;;;;;;;;28.99;39.71;100574.56;5077049;28;1103;-30
2023/09/04 09:49:08;;;;;;;;;;;;;;;29.42;38.07;100570.78;5071239;28;1989;-26
2023/09/04 09:51:35;;;;;;;;;;;;;;;29.36;37.65;100572.44;5077048;28;2465;-26
2023/09/04 09:54:00;;;;;;;;;;;;;;;29.41;37.24;100569.94;5071651;28;1042;-28
2023/09/04 09:56:26;;;;;;;;;;;;;;;29.38;37.30;100574.97;5062473;28;982;-29
2023/09/04 09:58:51;;;;;;;;;;;;;;;29.34;37.22;100564.50;5077646;28;1186;-29
2023/09/04 10:01:18;;;;;;;;;;;;;;;29.33;36.91;100570.13;5071187;28;1100;-29
2023/09/04 10:03:44;;;;;;;;;;;;;;;29.33;37.25;100565.56;5074838;28;981;-28
2023/09/04 10:06:11;;;;;;;;;;;;;;;29.26;37.11;100556.56;5064649;28;1230;-26
2023/09/04 10:08:40;;;;;;;;;;;;;;;29.28;37.39;100546.34;5050003;28;1902;-27
2023/09/04 10:11:06;;;;;;;;;;;;;;;29.13;37.67;100551.09;5046050;28;1053;-27
2023/09/04 10:13:34;;;;;;;;;;;;;;;29.35;37.22;100562.63;5074029;28;932;-26
2023/09/04 10:16:00;;;;;;;;;;;;;;;29.38;36.90;100561.41;5053975;28;1022;-26
2023/09/04 10:18:29;;;;;;;;;;;;;;;29.26;37.69;100561.16;5070799;28;997;-29
2023/09/04 10:20:55;;;;;;;;;;;;;;;29.46;37.23;100561.22;5076773;28;2226;-27
2023/09/04 10:23:22;;;;;;;;;;;;;;;29.37;35.93;100557.84;5063044;28;1071;-24
2023/09/04 10:26:02;;;;;;;;;;;;;;;29.36;36.36;100561.63;5057458;28;947;-24
2023/09/04 10:28:32;;;;;;;;;;;;;;;29.28;35.87;100559.91;5074615;28;1902;-25
2023/09/04 10:30:58;;;;;;;;;;;;;;;29.12;36.24;100554.84;5074750;28;1120;-25
2023/09/04 10:33:23;;;;;;;;;;;;;;;29.07;36.33;100550.88;5053111;28;857;-30
2023/09/04 10:35:49;;;;;;;;;;;;;;;29.28;35.29;100557.19;5054209;28;1163;-27
2023/09/04 10:38:15;;;;;;;;;;;;;;;28.41;35.23;100447.41;5082189;28;1004;-29
2023/09/04 10:40:40;;;;;;;;;;;;;;;28.91;36.64;100552.00;5068180;28;1209;-24
2023/09/04 10:43:08;;;;;;;;;;;;;;;28.75;36.53;100557.72;5073266;28;1007;-28
2023/09/04 10:45:34;;;;;;;;;;;;;;;29.18;36.04;100564.84;5075259;28;886;-29
2023/09/04 10:48:01;;;;;;;;;;;;;;;29.00;36.60;100557.28;5063932;28;1910;-27
2023/09/04 10:50:32;;;;;;;;;;;;;;;29.23;36.98;100558.84;5073977;28;1004;-29
2023/09/04 10:53:00;;;;;;;;;;;;;;;29.43;38.58;100567.88;5070116;28;2722;-30
2023/09/04 10:55:26;;;;;;;;;;;;;;;29.48;39.61;100558.31;5074941;28;1146;-27
2023/09/04 10:57:55;;;;;;;;;;;;;;;29.49;39.24;100549.97;5074485;28;858;-28
2023/09/04 11:00:28;;;;;;;;;;;;;;;29.25;40.53;100548.63;5070851;28;1206;-27
2023/09/04 11:02:54;;;;;;;;;;;;;;;29.23;41.65;100550.72;5075193;28;1089;-28
2023/09/04 11:05:19;;;;;;;;;;;;;;;29.44;41.04;100558.72;5056528;28;1129;-28
2023/09/04 11:07:45;;;;;;;;;;;;;;;29.33;41.49;100551.16;5047214;28;1975;-27
2023/09/04 11:10:11;;;;;;;;;;;;;;;29.52;40.81;100549.56;5060609;28;1193;-29
2023/09/04 11:12:37;;;;;;;;;;;;;;;29.52;40.50;100541.44;5067824;28;1031;-31
2023/09/04 11:15:12;;;;;;;;;;;;;;;29.53;41.38;100545.81;5072314;28;928;-27
2023/09/04 11:17:38;;;;;;;;;;;;;;;29.64;40.83;100546.28;5066666;28;879;-30
2023/09/04 11:20:04;;;;;;;;;;;;;;;29.58;40.74;100542.47;5060215;28;1185;-28
2023/09/04 11:22:29;;;;;;;;;;;;;;;29.54;40.50;100535.81;5063621;28;2247;-28
2023/09/04 11:24:55;;;;;;;;;;;;;;;29.60;40.08;100526.03;5044692;28;1384;-28
2023/09/04 11:27:21;;;;;;;;;;;;;;;29.49;40.48;100530.16;5076277;28;1918;-29
2023/09/04 11:29:47;;;;;;;;;;;;;;;29.51;39.89;100525.38;5076490;28;1158;-29
2023/09/04 11:32:12;;;;;;;;;;;;;;;29.49;39.48;100527.44;5076869;28;983;-30
2023/09/04 11:34:38;;;;;;;;;;;;;;;29.56;39.27;100521.00;5076291;28;1102;-27
2023/09/04 11:37:04;;;;;;;;;;;;;;;29.36;39.43;100520.97;5058374;28;1459;-29
2023/09/04 11:39:30;;;;;;;;;;;;;;;29.39;39.23;100514.31;5058669;28;1092;-30
2023/09/04 11:41:55;;;;;;;;;;;;;;;29.50;39.19;100508.28;5075170;28;1042;-31
2023/09/04 11:44:21;;;;;;;;;;;;;;;29.80;38.27;100515.22;5075825;28;1064;-29
2023/09/04 11:46:46;;;;;;;;;;;;;;;29.82;37.85;100507.72;5075834;28;1019;-27
2023/09/04 11:49:12;;;;;;;;;;;;;;;29.80;37.56;100502.50;5076404;28;1972;-27
2023/09/04 11:51:38;;;;;;;;;;;;;;;29.90;37.04;100499.38;5075552;28;2021;-27
2023/09/04 11:54:06;;;;;;;;;;;;;;;29.82;37.21;100497.72;5054745;28;961;-29
2023/09/04 11:56:32;;;;;;;;;;;;;;;29.77;36.87;100493.97;5067411;28;1162;-27
2023/09/04 11:58:58;;;;;;;;;;;;;;;29.66;36.69;100498.94;5072114;28;1218;-30
2023/09/04 12:01:24;;;;;;;;;;;;;;;29.76;36.91;100500.44;5073031;28;1151;-26
2023/09/04 12:03:52;;;;;;;;;;;;;;;29.78;36.97;100510.00;5075830;28;1317;-30
2023/09/04 12:06:18;;;;;;;;;;;;;;;29.80;37.02;100507.94;5075104;28;1203;-30
2023/09/04 12:08:44;;;;;;;;;;;;;;;29.82;36.43;100510.44;5055119;28;1898;-32
2023/09/04 12:11:09;;;;;;;;;;;;;;;29.67;36.51;100510.63;5075521;28;1230;-30
2023/09/04 12:13:35;;;;;;;;;;;;;;;29.82;36.62;100522.13;5075376;28;1230;-31
2023/09/04 12:16:07;;;;;;;;;;;;;;;29.56;37.37;100521.00;5074117;28;1340;-29
2023/09/04 12:18:36;;;;;;;;;;;;;;;29.42;37.01;100512.03;5074407;28;1179;-30
2023/09/04 12:21:05;;;;;;;;;;;;;;;29.53;36.85;100516.00;5067243;28;1036;-28
2023/09/04 12:23:43;;;;;;;;;;;;;;;29.32;37.52;100520.53;5062177;28;897;-26
2023/09/04 12:26:09;;;;;;;;;;;;;;;29.48;37.08;100523.91;5057116;28;1035;-29
2023/09/04 12:28:35;;;;;;;;;;;;;;;29.61;37.11;100527.72;5067912;28;1910;-34
2023/09/04 12:31:01;;;;;;;;;;;;;;;29.66;36.95;100526.06;5073889;28;1103;-28
2023/09/04 12:33:28;;;;;;;;;;;;;;;29.67;36.56;100522.31;5074660;28;1155;-29
2023/09/04 12:35:59;;;;;;;;;;;;;;;29.60;36.72;100528.75;5074644;28;1241;-28
2023/09/04 12:38:25;;;;;;;;;;;;;;;29.74;36.54;100533.19;5075608;28;1087;-27
2023/09/04 12:40:50;;;;;;;;;;;;;;;29.69;36.66;100524.81;5075124;28;1006;-29
2023/09/04 12:43:16;;;;;;;;;;;;;;;29.62;36.82;100526.66;5075339;28;1118;-28